sensor_id;sensor_type;location;lat;lon;timestamp;P1;durP1;ratioP1;P2;durP2;ratioP2
57301;SDS011;43149;50.974;18.224;2022-11-06T00:02:57;36.50;;;22.00;;
57301;SDS011;43149;50.974;18.224;2022-11-06T00:13:01;59.50;;;24.60;;
57301;SDS011;43149;50.974;18.224;2022-11-06T00:15:26;100.30;;;54.90;;
57301;SDS011;43149;50.974;18.224;2022-11-06T00:25:09;52.00;;;30.40;;
57301;SDS011;43149;50.974;18.224;2022-11-06T00:34:55;27.80;;;17.00;;
57301;SDS011;43149;50.974;18.224;2022-11-06T00:44:38;29.20;;;17.20;;
57301;SDS011;43149;50.974;18.224;2022-11-06T00:54:23;35.70;;;19.40;;
57301;SDS011;43149;50.974;18.224;2022-11-06T01:14:13;25.70;;;13.40;;
57301;SDS011;43149;50.974;18.224;2022-11-06T01:24:05;36.30;;;18.90;;
57301;SDS011;43149;50.974;18.224;2022-11-06T01:33:54;44.70;;;20.60;;
57301;SDS011;43149;50.974;18.224;2022-11-06T01:53:31;55.90;;;23.60;;
57301;SDS011;43149;50.974;18.224;2022-11-06T02:03:17;40.00;;;27.50;;
57301;SDS011;43149;50.974;18.224;2022-11-06T02:13:05;26.60;;;15.80;;
57301;SDS011;43149;50.974;18.224;2022-11-06T02:23:42;28.30;;;17.90;;
57301;SDS011;43149;50.974;18.224;2022-11-06T02:33:58;21.60;;;13.90;;
57301;SDS011;43149;50.974;18.224;2022-11-06T02:43:59;23.80;;;10.40;;
57301;SDS011;43149;50.974;18.224;2022-11-06T02:53:46;4.40;;;4.00;;
57301;SDS011;43149;50.974;18.224;2022-11-06T03:03:48;10.40;;;6.70;;
57301;SDS011;43149;50.974;18.224;2022-11-06T03:24:33;39.80;;;8.80;;
57301;SDS011;43149;50.974;18.224;2022-11-06T03:45:05;27.10;;;15.30;;
57301;SDS011;43149;50.974;18.224;2022-11-06T03:55:06;6.70;;;5.60;;
57301;SDS011;43149;50.974;18.224;2022-11-06T04:04:57;10.50;;;5.70;;
57301;SDS011;43149;50.974;18.224;2022-11-06T04:15:22;24.20;;;8.50;;
57301;SDS011;43149;50.974;18.224;2022-11-06T04:54:17;49.50;;;10.50;;
57301;SDS011;43149;50.974;18.224;2022-11-06T05:04:02;38.60;;;5.30;;
57301;SDS011;43149;50.974;18.224;2022-11-06T05:13:47;42.80;;;8.20;;
57301;SDS011;43149;50.974;18.224;2022-11-06T05:23:49;7.80;;;6.40;;
57301;SDS011;43149;50.974;18.224;2022-11-06T05:33:33;6.10;;;3.40;;
57301;SDS011;43149;50.974;18.224;2022-11-06T05:43:23;12.00;;;7.80;;
57301;SDS011;43149;50.974;18.224;2022-11-06T05:53:07;6.00;;;3.20;;
57301;SDS011;43149;50.974;18.224;2022-11-06T06:02:52;7.60;;;5.30;;
57301;SDS011;43149;50.974;18.224;2022-11-06T06:12:36;21.40;;;12.60;;
57301;SDS011;43149;50.974;18.224;2022-11-06T06:19:57;39.60;;;18.90;;
57301;SDS011;43149;50.974;18.224;2022-11-06T06:37:00;16.00;;;6.60;;
57301;SDS011;43149;50.974;18.224;2022-11-06T06:46:45;12.00;;;6.70;;
57301;SDS011;43149;50.974;18.224;2022-11-06T06:56:30;10.00;;;6.90;;
57301;SDS011;43149;50.974;18.224;2022-11-06T07:13:35;7.40;;;3.90;;
57301;SDS011;43149;50.974;18.224;2022-11-06T07:23:25;7.70;;;5.00;;
57301;SDS011;43149;50.974;18.224;2022-11-06T07:33:12;3.50;;;2.10;;
57301;SDS011;43149;50.974;18.224;2022-11-06T07:43:04;12.10;;;7.60;;
57301;SDS011;43149;50.974;18.224;2022-11-06T07:52:49;15.30;;;8.50;;
57301;SDS011;43149;50.974;18.224;2022-11-06T08:02:35;11.50;;;5.90;;
57301;SDS011;43149;50.974;18.224;2022-11-06T08:12:18;38.30;;;14.20;;
57301;SDS011;43149;50.974;18.224;2022-11-06T08:22:03;16.70;;;8.70;;
57301;SDS011;43149;50.974;18.224;2022-11-06T08:31:48;20.30;;;9.70;;
57301;SDS011;43149;50.974;18.224;2022-11-06T08:48:51;10.60;;;8.80;;
57301;SDS011;43149;50.974;18.224;2022-11-06T09:13:10;3.80;;;3.50;;
57301;SDS011;43149;50.974;18.224;2022-11-06T09:22:58;11.00;;;6.30;;
57301;SDS011;43149;50.974;18.224;2022-11-06T09:32:51;17.80;;;7.90;;
57301;SDS011;43149;50.974;18.224;2022-11-06T09:53:43;10.00;;;7.00;;
57301;SDS011;43149;50.974;18.224;2022-11-06T10:03:56;14.60;;;9.30;;
57301;SDS011;43149;50.974;18.224;2022-11-06T10:23:57;4.40;;;4.00;;
57301;SDS011;43149;50.974;18.224;2022-11-06T10:41:31;13.00;;;8.80;;
57301;SDS011;43149;50.974;18.224;2022-11-06T11:08:58;5.90;;;3.70;;
57301;SDS011;43149;50.974;18.224;2022-11-06T11:18:51;10.70;;;9.60;;
57301;SDS011;43149;50.974;18.224;2022-11-06T11:28:56;18.80;;;9.40;;
57301;SDS011;43149;50.974;18.224;2022-11-06T11:39:14;10.60;;;6.60;;
57301;SDS011;43149;50.974;18.224;2022-11-06T11:49:29;15.80;;;8.30;;
57301;SDS011;43149;50.974;18.224;2022-11-06T11:59:21;6.90;;;6.20;;
57301;SDS011;43149;50.974;18.224;2022-11-06T12:09:39;13.80;;;3.20;;
57301;SDS011;43149;50.974;18.224;2022-11-06T12:19:45;8.50;;;6.00;;
57301;SDS011;43149;50.974;18.224;2022-11-06T12:30:10;5.60;;;4.00;;
57301;SDS011;43149;50.974;18.224;2022-11-06T12:40:17;9.50;;;4.80;;
57301;SDS011;43149;50.974;18.224;2022-11-06T12:50:38;4.40;;;3.60;;
57301;SDS011;43149;50.974;18.224;2022-11-06T13:34:49;3.30;;;3.00;;
57301;SDS011;43149;50.974;18.224;2022-11-06T13:44:46;18.70;;;5.40;;
57301;SDS011;43149;50.974;18.224;2022-11-06T14:16:00;2.30;;;2.10;;
57301;SDS011;43149;50.974;18.224;2022-11-06T14:26:09;4.60;;;2.60;;
57301;SDS011;43149;50.974;18.224;2022-11-06T14:36:38;4.90;;;2.30;;
57301;SDS011;43149;50.974;18.224;2022-11-06T14:46:30;8.50;;;4.80;;
57301;SDS011;43149;50.974;18.224;2022-11-06T14:56:29;8.50;;;4.90;;
57301;SDS011;43149;50.974;18.224;2022-11-06T15:06:39;4.50;;;2.20;;
57301;SDS011;43149;50.974;18.224;2022-11-06T15:16:39;4.30;;;2.80;;
57301;SDS011;43149;50.974;18.224;2022-11-06T15:26:44;63.80;;;19.90;;
57301;SDS011;43149;50.974;18.224;2022-11-06T15:36:50;5.20;;;3.40;;
57301;SDS011;43149;50.974;18.224;2022-11-06T15:46:53;11.80;;;4.10;;
57301;SDS011;43149;50.974;18.224;2022-11-06T15:57:04;7.00;;;3.90;;
57301;SDS011;43149;50.974;18.224;2022-11-06T16:07:29;34.90;;;10.80;;
57301;SDS011;43149;50.974;18.224;2022-11-06T16:17:17;2.60;;;2.40;;
57301;SDS011;43149;50.974;18.224;2022-11-06T16:27:14;26.90;;;9.90;;
57301;SDS011;43149;50.974;18.224;2022-11-06T17:04:21;23.20;;;9.20;;
57301;SDS011;43149;50.974;18.224;2022-11-06T17:14:22;17.70;;;9.50;;
57301;SDS011;43149;50.974;18.224;2022-11-06T17:24:10;16.00;;;10.60;;
57301;SDS011;43149;50.974;18.224;2022-11-06T17:33:56;20.30;;;6.10;;
57301;SDS011;43149;50.974;18.224;2022-11-06T17:43:57;16.70;;;10.40;;
57301;SDS011;43149;50.974;18.224;2022-11-06T17:59:00;42.70;;;21.40;;
57301;SDS011;43149;50.974;18.224;2022-11-06T18:08:44;15.10;;;8.20;;
57301;SDS011;43149;50.974;18.224;2022-11-06T18:18:28;6.00;;;4.30;;
57301;SDS011;43149;50.974;18.224;2022-11-06T18:28:19;16.50;;;7.70;;
57301;SDS011;43149;50.974;18.224;2022-11-06T18:38:05;12.80;;;5.30;;
57301;SDS011;43149;50.974;18.224;2022-11-06T18:47:49;11.40;;;7.20;;
57301;SDS011;43149;50.974;18.224;2022-11-06T18:57:33;8.10;;;4.70;;
57301;SDS011;43149;50.974;18.224;2022-11-06T19:07:16;13.20;;;3.90;;
57301;SDS011;43149;50.974;18.224;2022-11-06T19:16:59;45.40;;;17.80;;
57301;SDS011;43149;50.974;18.224;2022-11-06T19:41:19;20.50;;;12.20;;
57301;SDS011;43149;50.974;18.224;2022-11-06T19:51:07;18.00;;;11.90;;
57301;SDS011;43149;50.974;18.224;2022-11-06T20:01:09;19.20;;;11.80;;
57301;SDS011;43149;50.974;18.224;2022-11-06T20:11:07;38.00;;;16.50;;
57301;SDS011;43149;50.974;18.224;2022-11-06T20:21:03;51.00;;;24.20;;
57301;SDS011;43149;50.974;18.224;2022-11-06T20:30:48;46.90;;;21.70;;
57301;SDS011;43149;50.974;18.224;2022-11-06T20:40:32;43.30;;;17.20;;
57301;SDS011;43149;50.974;18.224;2022-11-06T20:50:16;40.00;;;25.30;;
57301;SDS011;43149;50.974;18.224;2022-11-06T21:07:17;40.20;;;20.90;;
57301;SDS011;43149;50.974;18.224;2022-11-06T21:17:01;27.00;;;14.40;;
57301;SDS011;43149;50.974;18.224;2022-11-06T21:26:49;59.60;;;25.80;;
57301;SDS011;43149;50.974;18.224;2022-11-06T21:36:39;77.90;;;25.60;;
57301;SDS011;43149;50.974;18.224;2022-11-06T21:46:32;41.20;;;20.70;;
57301;SDS011;43149;50.974;18.224;2022-11-06T21:56:36;25.40;;;14.90;;
57301;SDS011;43149;50.974;18.224;2022-11-06T22:06:24;29.00;;;12.60;;
57301;SDS011;43149;50.974;18.224;2022-11-06T22:16:31;28.80;;;16.90;;
57301;SDS011;43149;50.974;18.224;2022-11-06T22:26:24;15.20;;;9.40;;
57301;SDS011;43149;50.974;18.224;2022-11-06T22:36:11;46.50;;;21.20;;
57301;SDS011;43149;50.974;18.224;2022-11-06T22:45:58;49.60;;;22.40;;
57301;SDS011;43149;50.974;18.224;2022-11-06T22:55:43;32.90;;;17.50;;
57301;SDS011;43149;50.974;18.224;2022-11-06T23:05:27;66.70;;;25.80;;
57301;SDS011;43149;50.974;18.224;2022-11-06T23:15:22;43.00;;;19.20;;
57301;SDS011;43149;50.974;18.224;2022-11-06T23:25:07;22.00;;;12.80;;
57301;SDS011;43149;50.974;18.224;2022-11-06T23:34:52;67.70;;;24.70;;
57301;SDS011;43149;50.974;18.224;2022-11-06T23:44:38;53.60;;;20.80;;
57301;SDS011;43149;50.974;18.224;2022-11-06T23:54:40;31.50;;;15.80;;
